Gloucester, MA (01930)

1:30 PM EST on December 02, 2016 (GMT -0500)
Dogtown Common | | Change Station

Elev 75 ft 42.63 °N, 70.67 °W | Updated 46 seconds ago

Mostly Cloudy
Mostly Cloudy
50.5 °F
Feels Like 50.5 °F
N
5.3
Wind Variable Wind from SW

Today
High -- | Low -- °F
--% Chance of Precip.
Yesterday
High -- | Low -- °F
Precip. -- in
Pressure 29.70 in
Visibility 10.0 miles
Clouds Mostly Cloudy 4200 ft
Dew Point 31 °F
Humidity 47%
Rainfall 0.00 in
Snow Depth Not available.
6:54 AM 4:09 PM
Waxing Crescent, 10% visible
METAR KBVY 021753Z 27013KT 10SM BKN042 09/00 A2971 RMK AO2 SLP058 T00940000 10106 20033 57016
Pressure 29.70 in
Visibility 10.0 miles
Clouds Mostly Cloudy 4200 ft
Dew Point 31 °F
Humidity 47%
Rainfall 0.00 in
Snow Depth Not available.
6:54 AM 4:09 PM
Waxing Crescent, 10% visible
METAR KBVY 021753Z 27013KT 10SM BKN042 09/00 A2971 RMK AO2 SLP058 T00940000 10106 20033 57016

10-Day Weather Forecast

Almanac

Astronomy

Dec. 02, 2016 Rise Set
Actual Time
Civil Twilight
Nautical Twilight
Astronomical Twilight
Moon
Length of Visible Light
Length of Day
Tomorrow will be .
, % of the Moon is Illuminated

Today's Extremes

State Highs State Lows

Community

WunderPhotos

Upload Photos

1,955,332 photos uploaded!

WunderBlog® & News

Nearby

Air Quality

  Air Quality AQ Index Pollutant
Not available.

Snow Depth

Station Depth Elevation

Earthquake Activity

City Distance Mag. Time & Date
Minimum magnitude displayed is 2.5.

Coastal Water Temperatures

Place Temperature

Stations

Nearby Weather Stations

Station Location Temp. Windchill Dew Point Humidity Wind Precip. Elev Updated Type
                   

Watches & Warnings

There are currently no watches in effect.